KCIC Airport Information

Runway Information
Runway 13L Length 6724 ft width 150 ft
Elevation 238 ft Threshold 0 ft Heading 147
Runway 31R Length 6724 ft Width 150 ft
Elevation 205 ft Threshold 0 ft Heading 327
Runway 13R Length 3005 ft width 60 ft
Elevation 225 ft Threshold 0 ft Heading 148
Runway 31L Length 3005 ft Width 60 ft
Elevation 212 ft Threshold 0 ft Heading 328
Airport Frequencies
Type AWOS Name AWOS 3 Frequency 119.675 MHZ
Type CNTR Name OAKLAND CN Frequency 132.2 MHZ
Type CTAF Name CTAF Frequency 121 MHZ
Type GND Name GND Frequency 121.9 MHZ
Type RDO Name RANCHO RDO Frequency 109.8 MHZ
Type TWR Name TWR Frequency 121 MHZ
Type UNIC Name UNICOM Frequency 122.95 MHZ
Airport Navaids
Airport Weather Information & NOTAM
ADDS - METARS form results

(0556 UTC 27 January 2021)
Data provider http://aviationweather.gov/metar/data/
 
METAR text: KCIC 270535Z AUTO 14023G34KT 3SM FEW003 OVC015 04/03 A2971 RMK AO1 P0008
Conditions at: KCIC (CHICO MUNICIPAL , CA, US) observed 0535 UTC 27 January 2021
Temperature: 4.0°C (39°F)
Dewpoint: 3.0°C (37°F) [RH = 93%]
Pressure (altimeter): 29.71 inches Hg (1006.2 mb)
Winds: from the SE (140 degrees) at 26 MPH (23 knots; 11.8 m/s)
gusting to 39 MPH (34 knots; 17.5 m/s)
Visibility: 3 miles ( 5 km)
Ceiling: 1500 feet AGL
Clouds: few clouds at 300 feet AGL
overcast cloud deck at 1500 feet AGL
Weather: automated observation with no human augmentation;
there may or may not be significant weather present at this time

METAR text: KCIC 270515Z AUTO 14024G31KT 4SM OVC015 04/03 A2971 RMK AO1 P0003
Conditions at: KCIC (CHICO MUNICIPAL , CA, US) observed 0515 UTC 27 January 2021
Temperature: 4.0°C (39°F)
Dewpoint: 3.0°C (37°F) [RH = 93%]
Pressure (altimeter): 29.71 inches Hg (1006.2 mb)
Winds: from the SE (140 degrees) at 28 MPH (24 knots; 12.3 m/s)
gusting to 36 MPH (31 knots; 15.9 m/s)
Visibility: 4 miles ( 6 km)
Ceiling: 1500 feet AGL
Clouds: overcast cloud deck at 1500 feet AGL
Weather: automated observation with no human augmentation;
there may or may not be significant weather present at this time